Latest Weather Observations for Rhyll

IDV60801

Issued at 4:32 pm EST Thursday 28 July 2016 (issued every 30 minutes, with the page automatically refreshed every 10 minutes)

About weather observations | Map of weather stations | Latest weather observations for VIC | Other Formats
Station Details ID: 086373 Name: RHYLL Lat: -38.46 Lon: 145.31 Height: 13.4 m
Data from the previous 72 hours. | See also: Recent months at Rhyll
Date/Time
EST
Temp
°C
App
Temp
°C
Dew
Point
°C
Rel
Hum
%
Delta-T
°C
Wind Press
QNH
hPa
Press
MSL
hPa
Rain since
9am
mm
Dir  Spd
km/h
Gust
km/h
Spd
kts
Gust
kts
28/04:30pm 13.5 10.4 8.8 73 2.4 W 15 24 8 13 1021.1 1021.1 0.0
28/04:00pm 13.3 10.5 8.4 72 2.4 W 13 28 7 15 1021.2 1021.2 0.0
28/03:30pm 13.3 11.1 9.2 76 2.1 WNW 11 26 6 14 1021.1 1021.1 0.0
28/03:00pm 13.7 10.1 8.5 71 2.6 W 17 33 9 18 1020.9 1020.9 0.0
28/02:30pm 13.5 11.3 9.2 75 2.2 WNW 11 28 6 15 1020.9 1020.9 0.0
28/02:00pm 13.6 11.1 9.6 77 2.0 WNW 13 30 7 16 1020.9 1020.9 0.0
28/01:30pm 13.3 11.5 9.5 78 1.9 NW 9 20 5 11 1021.1 1021.1 0.0
28/01:00pm 13.2 10.5 9.1 76 2.1 WNW 13 24 7 13 1021.3 1021.3 0.0
28/12:30pm 13.8 10.9 9.5 75 2.2 WNW 15 30 8 16 1021.5 1021.5 0.0
28/12:00pm 12.7 10.3 8.8 77 1.9 WNW 11 24 6 13 1021.8 1021.8 0.0
28/11:30am 13.2 10.9 9.1 76 2.1 NW 11 26 6 14 1022.0 1022.0 0.0
28/11:00am 12.5 9.8 9.0 79 1.7 NW 13 30 7 16 1022.4 1022.4 0.0
28/10:30am 11.7 9.3 8.7 82 1.5 WNW 11 24 6 13 1022.5 1022.5 0.0
28/10:00am 11.2 8.5 8.8 85 1.2 WNW 13 24 7 13 1022.3 1022.3 0.0
28/09:30am 11.3 8.6 8.9 85 1.2 NW 13 30 7 16 1022.3 1022.3 0.0
28/09:00am 10.9 8.5 8.7 86 1.1 NW 11 22 6 12 1022.2 1022.2 0.2
28/08:30am 10.4 8.0 8.5 88 0.9 NW 11 26 6 14 1021.9 1021.9 0.2
28/08:00am 10.3 7.8 8.4 88 0.9 NW 11 28 6 15 1021.8 1021.8 0.2
28/07:30am 10.2 7.0 8.3 88 0.9 WNW 15 24 8 13 1021.5 1021.5 0.2
28/07:00am 10.2 7.7 8.3 88 0.9 WNW 11 24 6 13 1021.4 1021.4 0.2
28/06:30am 10.1 6.8 8.2 88 0.9 WNW 15 28 8 15 1020.9 1020.9 0.2
28/06:00am 10.1 7.3 8.4 89 0.8 WNW 13 28 7 15 1020.7 1020.7 0.2
28/05:30am 10.1 7.2 8.2 88 0.9 WNW 13 28 7 15 1020.7 1020.7 0.2
28/05:00am 10.3 7.0 8.2 87 1.0 W 15 24 8 13 1020.4 1020.4 0.2
28/04:30am 10.2 6.9 8.1 87 1.0 WNW 15 28 8 15 1020.3 1020.3 0.2
28/04:00am 10.1 7.2 8.2 88 0.9 WNW 13 28 7 15 1020.4 1020.4 0.2
28/03:30am 10.1 6.8 8.2 88 0.9 WNW 15 26 8 14 1020.4 1020.4 0.2
28/03:00am 9.9 7.0 8.0 88 0.9 WNW 13 22 7 12 1020.5 1020.5 0.2
28/02:30am 9.7 7.2 8.0 89 0.8 WNW 11 22 6 12 1020.6 1020.6 0.2
28/02:00am 9.6 7.4 7.9 89 0.8 WNW 9 20 5 11 1020.6 1020.6 0.2
28/01:30am 9.5 7.2 7.6 88 0.9 WNW 9 19 5 10 1020.4 1020.4 0.2
28/01:00am 9.6 7.0 7.7 88 0.9 WNW 11 24 6 13 1020.4 1020.4 0.2
28/12:30am 9.4 6.8 7.7 89 0.8 NW 11 20 6 11 1020.4 1020.4 0.2
28/12:00am 9.3 6.6 7.3 87 0.9 NW 11 20 6 11 1020.3 1020.3 0.2
 
Date/Time
EST
Temp
°C
App
Temp
°C
Dew
Point
°C
Rel
Hum
%
Delta-T
°C
Wind Press
QNH
hPa
Press
MSL
hPa
Rain since
9am
mm
Dir  Spd
km/h
Gust
km/h
Spd
kts
Gust
kts
27/11:30pm 9.6 6.9 7.4 86 1.0 WNW 11 24 6 13 1020.5 1020.5 0.2
27/11:00pm 9.6 6.9 7.4 86 1.0 WNW 11 20 6 11 1020.3 1020.3 0.2
27/10:30pm 9.6 6.9 7.5 87 1.0 WNW 11 24 6 13 1020.1 1020.1 0.2
27/10:00pm 9.6 6.6 7.5 87 1.0 WNW 13 26 7 14 1020.3 1020.3 0.2
27/09:30pm 9.3 6.6 7.4 88 0.9 WNW 11 22 6 12 1020.1 1020.1 0.2
27/09:00pm 9.5 7.2 7.4 87 1.0 WNW 9 22 5 12 1020.3 1020.3 0.2
27/08:30pm 9.8 6.7 7.1 83 1.3 WNW 13 26 7 14 1020.3 1020.3 0.2
27/08:00pm 10.1 7.0 7.2 82 1.4 WNW 13 22 7 12 1020.1 1020.1 0.2
27/07:30pm 10.1 6.6 7.0 81 1.5 W 15 26 8 14 1019.8 1019.8 0.2
27/07:00pm 10.2 7.0 6.7 79 1.6 WNW 13 28 7 15 1019.5 1019.5 0.2
27/06:30pm 9.9 7.0 6.6 80 1.5 W 11 20 6 11 1019.0 1019.0 0.2
27/06:00pm 10.2 7.3 6.7 79 1.6 WNW 11 24 6 13 1018.1 1018.1 0.2
27/05:30pm 9.9 7.9 6.3 78 1.7 WNW 6 11 3 6 1017.7 1017.7 0.2
27/05:00pm 9.8 7.3 6.5 80 1.5 W 9 17 5 9 1017.7 1017.7 0.2
27/04:30pm 10.7 7.3 5.7 71 2.3 W 13 30 7 16 1017.5 1017.5 0.2
27/04:00pm 10.7 6.8 5.5 70 2.4 W 15 32 8 17 1017.3 1017.3 0.2
27/03:30pm 11.3 7.4 5.4 67 2.7 W 15 28 8 15 1016.9 1016.9 0.2
27/03:00pm 10.8 5.8 4.7 66 2.7 W 20 37 11 20 1016.5 1016.5 0.2
27/02:30pm 11.5 7.1 4.9 64 3.0 W 17 33 9 18 1015.8 1015.8 0.2
27/02:00pm 10.9 8.0 6.3 73 2.1 W 11 20 6 11 1015.6 1015.6 0.2
27/01:30pm 10.8 5.2 5.3 69 2.5 WSW 24 39 13 21 1015.2 1015.2 0.2
27/01:00pm 11.4 7.1 5.3 66 2.8 WSW 17 30 9 16 1014.9 1014.9 0.2
27/12:30pm 10.5 6.4 6.1 74 2.0 SW 17 28 9 15 1015.1 1015.1 0.2
27/12:00pm 11.7 7.9 5.8 67 2.7 WSW 15 28 8 15 1014.6 1014.6 0.0
27/11:30am 10.7 6.5 5.9 72 2.2 SW 17 33 9 18 1014.7 1014.7 0.0
27/11:00am 11.1 6.5 6.3 72 2.2 SW 20 32 11 17 1014.2 1014.2 0.0
27/10:30am 10.2 6.1 6.0 75 1.9 SW 17 30 9 16 1013.9 1013.9 0.0
27/10:14am 10.1 3.9 6.3 77 1.8 SW 28 46 15 25 1013.7 1013.7 0.0
27/10:00am 11.0 6.6 4.9 66 2.8 SW 17 26 9 14 1013.3 1013.3 0.0
27/09:30am 10.3 5.1 5.3 71 2.3 SW 22 39 12 21 1012.8 1012.8 0.0
27/09:00am 10.6 6.2 6.4 75 2.0 SW 19 32 10 17 1011.6 1011.6 1.2
27/08:30am 10.7 5.7 6.6 76 1.9 SW 22 35 12 19 1010.8 1010.8 1.2
27/08:00am 10.5 5.6 6.8 78 1.7 SW 22 37 12 20 1009.9 1009.9 1.2
27/07:30am 9.9 5.7 8.2 89 0.8 SW 20 35 11 19 1009.0 1009.0 1.2
27/07:00am 9.6 7.5 8.4 92 0.6 W 9 17 5 9 1008.0 1008.0 0.2
27/06:30am 9.7 7.4 7.6 87 1.0 NW 9 19 5 10 1007.2 1007.2 0.0
27/06:00am 9.9 7.2 7.3 84 1.2 WNW 11 24 6 13 1006.7 1006.7 0.0
27/05:30am 9.7 6.5 7.0 83 1.3 NW 13 22 7 12 1006.3 1006.3 0.0
27/05:00am 9.5 5.6 7.1 85 1.1 NW 17 28 9 15 1005.7 1005.7 0.0
27/04:30am 9.6 6.1 7.0 84 1.2 NW 15 28 8 15 1005.3 1005.3 0.0
27/04:00am 9.6 4.3 6.9 83 1.3 NNW 24 39 13 21 1005.0 1005.0 0.0
27/03:30am 9.5 3.1 7.1 85 1.1 NNW 30 41 16 22 1004.9 1004.9 0.0
27/03:00am 9.6 2.6 6.9 83 1.3 NNW 33 46 18 25 1004.6 1004.6 0.0
27/02:30am 9.5 2.1 6.6 82 1.4 NNW 35 50 19 27 1004.6 1004.6 0.0
27/02:00am 9.8 2.3 6.5 80 1.5 NNW 35 48 19 26 1004.5 1004.5 0.0
27/01:30am 9.9 2.0 6.3 78 1.7 NNW 37 54 20 29 1004.4 1004.4 0.0
27/01:17am 9.9 2.0 6.1 77 1.8 NNW 37 57 20 31 1004.4 1004.4 0.0
27/01:00am 9.9 2.4 6.1 77 1.8 NNW 35 50 19 27 1004.6 1004.6 0.0
27/12:30am 9.8 0.5 5.8 76 1.8 NNW 44 63 24 34 1004.4 1004.4 0.0
27/12:00am 10.0 0.8 5.6 74 2.0 NNW 43 65 23 35 1004.6 1004.6 0.0
 
Date/Time
EST
Temp
°C
App
Temp
°C
Dew
Point
°C
Rel
Hum
%
Delta-T
°C
Wind Press
QNH
hPa
Press
MSL
hPa
Rain since
9am
mm
Dir  Spd
km/h
Gust
km/h
Spd
kts
Gust
kts
26/11:52pm 10.1 0.9 5.5 73 2.1 NNW 43 61 23 33 1004.6 1004.6 0.0
26/11:30pm 10.1 0.4 5.7 74 2.0 NNW 46 61 25 33 1004.5 1004.5 0.0
26/11:00pm 9.8 -0.3 5.8 76 1.8 NNW 48 61 26 33 1004.6 1004.6 0.0
26/10:30pm 9.7 -0.4 5.7 76 1.8 NNW 48 61 26 33 1004.8 1004.8 0.0
26/10:05pm 9.7 0.0 5.7 76 1.8 NNW 46 65 25 35 1005.1 1005.1 0.0
26/10:00pm 9.6 0.3 5.8 77 1.7 NNW 44 57 24 31 1005.1 1005.1 0.0
26/09:30pm 9.5 -0.2 6.0 79 1.6 NNW 46 57 25 31 1005.3 1005.3 0.0
26/09:00pm 9.6 0.3 6.0 78 1.7 NNW 44 57 24 31 1005.7 1005.7 0.0
26/08:30pm 9.7 0.4 6.1 78 1.7 NNW 44 56 24 30 1006.3 1006.3 0.0
26/08:00pm 9.8 0.6 6.2 78 1.7 NNW 44 59 24 32 1006.3 1006.3 0.0
26/07:30pm 9.5 1.2 5.9 78 1.7 NNW 39 56 21 30 1006.6 1006.6 0.0
26/07:00pm 9.7 1.0 5.9 77 1.8 NNW 41 54 22 29 1006.7 1006.7 0.0
26/06:30pm 9.8 0.7 5.8 76 1.8 NNW 43 54 23 29 1006.8 1006.8 0.0
26/06:00pm 9.8 1.8 5.6 75 1.9 NNW 37 44 20 24 1007.0 1007.0 0.0
26/05:30pm 9.9 1.9 5.5 74 2.0 NNW 37 48 20 26 1007.3 1007.3 0.0
26/05:00pm 9.8 1.4 5.4 74 2.0 NNW 39 48 21 26 1007.3 1007.3 0.0
26/04:30pm 9.9 3.1 5.1 72 2.2 NNW 30 41 16 22 1007.6 1007.6 0.0
26/04:00pm 9.9 2.8 5.3 73 2.1 NNW 32 44 17 24 1007.9 1007.9 0.0
26/03:30pm 9.7 1.9 4.9 72 2.2 NNW 35 50 19 27 1008.6 1008.6 0.0
26/03:21pm 9.7 2.9 5.3 74 2.0 NNW 30 50 16 27 1008.7 1008.7 0.0
26/03:00pm 9.6 2.4 5.0 73 2.1 NNW 32 46 17 25 1009.0 1009.0 0.0
26/02:30pm 9.5 2.1 4.9 73 2.1 NNW 33 50 18 27 1009.2 1009.2 0.0
26/02:00pm 9.4 0.8 4.4 71 2.2 NNW 39 56 21 30 1009.4 1009.4 0.0
26/01:30pm 9.3 1.5 4.9 74 2.0 NNW 35 48 19 26 1009.7 1009.7 0.0
26/01:00pm 9.5 2.2 4.7 72 2.1 NNW 32 52 17 28 1010.1 1010.1 0.0
26/12:52pm 9.4 2.8 4.2 70 2.3 NW 28 52 15 28 1010.3 1010.3 0.0
26/12:30pm 9.4 4.0 4.6 72 2.1 NW 22 41 12 22 1010.7 1010.7 0.0
26/12:12pm 9.2 1.9 4.6 73 2.0 NNW 32 52 17 28 1010.8 1010.8 0.0
26/12:00pm 9.2 1.4 5.0 75 1.9 NNW 35 48 19 26 1011.1 1011.1 0.0
26/11:50am 9.0 1.6 5.0 76 1.8 NNW 33 56 18 30 1011.1 1011.1 0.0
26/11:30am 8.8 1.6 4.8 76 1.8 NNW 32 44 17 24 1011.3 1011.3 0.0
26/11:00am 9.2 2.3 4.6 73 2.0 NNW 30 43 16 23 1011.3 1011.3 0.0
26/10:30am 9.1 3.4 4.9 75 1.9 NW 24 43 13 23 1011.1 1011.1 0.0
26/10:00am 8.9 3.5 4.7 75 1.9 NW 22 44 12 24 1010.9 1010.9 0.0
26/09:30am 9.0 4.2 4.6 74 1.9 NW 19 33 10 18 1011.0 1011.0 0.0
26/09:00am 8.4 3.6 4.4 76 1.8 NW 19 35 10 19 1011.1 1011.1 6.6
26/08:30am 8.0 3.2 4.8 80 1.4 NW 19 35 10 19 1010.8 1010.8 6.6
26/08:00am 7.4 3.3 4.2 80 1.4 NW 15 30 8 16 1010.5 1010.5 6.6
26/07:30am 7.4 2.6 4.5 82 1.3 NW 19 30 10 16 1010.0 1010.0 6.6
26/07:00am 7.3 3.2 4.3 81 1.3 WNW 15 32 8 17 1010.0 1010.0 6.6
26/06:30am 7.3 3.1 3.9 79 1.5 NW 15 30 8 16 1009.5 1009.5 6.6
26/06:00am 7.5 3.0 4.3 80 1.4 NW 17 32 9 17 1009.1 1009.1 6.6
26/05:30am 7.6 3.5 4.2 79 1.5 WNW 15 37 8 20 1008.9 1008.9 6.6
26/05:00am 7.6 2.7 4.0 78 1.6 WNW 19 35 10 19 1008.5 1008.5 6.6
26/04:30am 7.5 2.9 3.9 78 1.5 WNW 17 32 9 17 1007.9 1007.9 6.6
26/04:00am 7.8 2.9 4.0 77 1.6 WNW 19 35 10 19 1007.6 1007.6 6.6
26/03:30am 7.9 2.8 4.1 77 1.6 W 20 43 11 23 1007.7 1007.7 6.6
26/03:00am 8.0 3.0 3.8 75 1.8 WNW 19 43 10 23 1007.4 1007.4 6.6
26/02:30am 7.9 3.0 3.9 76 1.7 WNW 19 39 10 21 1007.1 1007.1 6.6
26/02:00am 7.6 3.1 4.0 78 1.6 WNW 17 37 9 20 1006.9 1006.9 6.6
26/01:30am 8.1 2.6 4.1 76 1.7 WNW 22 37 12 20 1006.6 1006.6 6.6
26/01:00am 8.2 3.1 4.0 75 1.8 W 20 35 11 19 1006.7 1006.7 6.6
26/12:30am 8.0 2.9 4.2 77 1.7 W 20 44 11 24 1006.6 1006.6 6.6
26/12:00am 7.9 2.8 4.3 78 1.6 WNW 20 37 11 20 1006.1 1006.1 6.6
 
Date/Time
EST
Temp
°C
App
Temp
°C
Dew
Point
°C
Rel
Hum
%
Delta-T
°C
Wind Press
QNH
hPa
Press
MSL
hPa
Rain since
9am
mm
Dir  Spd
km/h
Gust
km/h
Spd
kts
Gust
kts
25/11:30pm 8.3 2.3 3.6 72 2.0 WNW 24 43 13 23 1005.7 1005.7 6.6
25/11:00pm 8.6 3.6 4.4 75 1.9 WNW 20 43 11 23 1005.3 1005.3 6.6
25/10:30pm 8.8 2.5 3.8 71 2.2 W 26 46 14 25 1005.2 1005.2 6.6
25/10:00pm 9.3 3.9 4.7 73 2.1 WNW 22 46 12 25 1004.8 1004.8 6.6
25/09:30pm 9.2 3.8 4.6 73 2.0 W 22 35 12 19 1004.7 1004.7 6.6
25/09:00pm 9.3 4.5 5.7 78 1.6 WNW 20 39 11 21 1004.3 1004.3 6.6
25/08:30pm 9.2 4.5 6.1 81 1.4 WNW 20 39 11 21 1003.7 1003.7 6.6
25/08:00pm 8.6 2.5 6.4 86 1.0 W 28 52 15 28 1003.8 1003.8 6.0
25/07:30pm 9.7 5.3 6.6 81 1.4 WNW 19 39 10 21 1002.8 1002.8 5.6
25/07:00pm 9.3 5.0 6.9 85 1.1 NW 19 39 10 21 1002.0 1002.0 5.6
25/06:30pm 9.0 3.9 7.8 92 0.6 NW 24 59 13 32 1002.3 1002.3 5.6
25/06:22pm 9.2 3.4 7.8 91 0.7 WNW 28 59 15 32 1002.6 1002.6 5.0
25/06:08pm 10.2 5.3 8.6 90 0.8 NW 24 48 13 26 1002.3 1002.3 2.4
25/06:01pm 10.6 2.5 8.5 87 1.0 NNW 41 61 22 33 1001.5 1001.5 1.6
25/06:00pm 10.6 2.1 8.5 87 1.0 NNW 43 61 23 33 1001.4 1001.4 1.4
25/05:52pm 10.9 1.4 8.3 84 1.3 NNW 48 67 26 36 1000.6 1000.6 0.6
25/05:30pm 11.4 0.6 7.5 77 1.9 NNW 54 69 29 37 1000.0 1000.0 0.4
25/05:00pm 11.4 0.1 7.1 75 2.1 NNW 56 72 30 39 1000.5 1000.5 0.0

Other Formats:

Comma delimited format used in spreadsheet applications
http://www.bom.gov.au/fwo/IDV60801/IDV60801.94892.axf

JavaScript Object Notation format (JSON) in row-major order
http://www.bom.gov.au/fwo/IDV60801/IDV60801.94892.json